Time;durP1;ratioP1;P1;durP2;ratioP2;P2;SDS_P1;SDS_P2;PMS_P1;PMS_P2;Temp;Humidity;BMP_temperature;BMP_pressure;BME280_temperature;BME280_humidity;BME280_pressure;Samples;Min_cycle;Max_cycle;Signal;HPM_P1;HPM_P2
2023/11/13 00:00:25;;;;;;;32.60;29.40;;;;;;;6.99;100.00;95999.41;5091865;28;20048;-64
2023/11/13 00:02:50;;;;;;;26.65;23.83;;;;;;;6.94;100.00;95990.22;5091554;28;20031;-63
2023/11/13 00:05:15;;;;;;;42.10;36.92;;;;;;;6.90;100.00;95989.63;5085290;28;20111;-63
2023/11/13 00:07:41;;;;;;;44.80;40.35;;;;;;;6.86;100.00;95983.78;5085489;28;20031;-64
2023/11/13 00:10:08;;;;;;;33.40;30.10;;;;;;;6.86;100.00;95986.38;5100993;28;20073;-64
2023/11/13 00:12:34;;;;;;;35.80;32.15;;;;;;;6.84;100.00;95993.53;5087424;28;20031;-63
2023/11/13 00:14:59;;;;;;;27.40;22.95;;;;;;;6.82;100.00;95991.94;5085846;28;20440;-64
2023/11/13 00:17:25;;;;;;;36.38;32.53;;;;;;;6.80;100.00;95993.84;5092596;28;20017;-64
2023/11/13 00:19:50;;;;;;;36.40;32.90;;;;;;;6.80;100.00;95999.94;5098092;28;20031;-64
2023/11/13 00:22:15;;;;;;;39.78;36.10;;;;;;;6.81;100.00;95998.97;5095177;28;20036;-64
2023/11/13 00:24:41;;;;;;;43.70;39.30;;;;;;;6.82;100.00;96000.66;5086516;28;20054;-64
2023/11/13 00:27:06;;;;;;;42.03;37.72;;;;;;;6.83;100.00;95996.25;5090546;28;20017;-64
2023/11/13 00:29:32;;;;;;;26.25;23.35;;;;;;;6.82;100.00;95999.81;5086245;28;20034;-64
2023/11/13 00:31:57;;;;;;;34.60;31.30;;;;;;;6.85;100.00;96003.03;5087471;28;20030;-63
2023/11/13 00:34:22;;;;;;;34.47;31.17;;;;;;;6.90;100.00;96002.72;5090876;28;20028;-64
2023/11/13 00:36:50;;;;;;;33.50;30.02;;;;;;;6.95;100.00;96010.22;5101688;28;20108;-64
2023/11/13 00:39:17;;;;;;;35.05;31.45;;;;;;;6.95;100.00;95997.97;5085035;28;20025;-64
2023/11/13 00:41:42;;;;;;;36.38;32.75;;;;;;;6.91;100.00;95993.06;5099407;28;20016;-63
2023/11/13 00:44:08;;;;;;;39.20;35.03;;;;;;;6.88;100.00;95988.91;5085639;28;20024;-64
2023/11/13 00:46:33;;;;;;;35.42;31.85;;;;;;;6.88;100.00;95983.69;5094797;28;20599;-64
2023/11/13 00:48:58;;;;;;;33.25;29.85;;;;;;;6.84;100.00;95979.59;5090769;28;20070;-64
2023/11/13 00:51:24;;;;;;;37.03;32.80;;;;;;;6.79;100.00;95979.94;5093065;28;20024;-63
2023/11/13 00:53:49;;;;;;;37.40;33.53;;;;;;;6.80;100.00;95976.38;5093060;28;20090;-63
2023/11/13 00:56:16;;;;;;;24.13;20.33;;;;;;;6.79;100.00;95968.63;5084643;28;20031;-63
2023/11/13 00:58:41;;;;;;;25.67;23.17;;;;;;;6.78;100.00;95966.94;5080327;28;20012;-63
2023/11/13 01:01:08;;;;;;;23.70;21.58;;;;;;;6.91;100.00;95964.28;5085970;28;20031;-63
2023/11/13 01:03:34;;;;;;;30.35;27.35;;;;;;;6.82;100.00;95961.41;5094614;28;20027;-63
2023/11/13 01:06:00;;;;;;;33.13;30.10;;;;;;;6.79;100.00;95960.78;5086792;28;20024;-63
2023/11/13 01:08:26;;;;;;;35.47;32.17;;;;;;;6.76;100.00;95948.75;5084102;28;20525;-63
2023/11/13 01:10:52;;;;;;;33.97;30.45;;;;;;;6.77;100.00;95945.19;5089396;28;20091;-63
2023/11/13 01:13:18;;;;;;;22.85;20.55;;;;;;;6.83;100.00;95936.03;5087191;28;20559;-63
2023/11/13 01:15:44;;;;;;;19.65;17.65;;;;;;;6.77;100.00;95926.88;5088254;27;20031;-63
2023/11/13 01:18:09;;;;;;;24.30;21.90;;;;;;;6.74;100.00;95929.69;5089014;28;20023;-63
2023/11/13 01:20:34;;;;;;;25.02;22.58;;;;;;;6.71;100.00;95919.47;5089030;28;20020;-64
2023/11/13 01:23:00;;;;;;;25.27;22.90;;;;;;;6.71;100.00;95924.69;5093286;28;20016;-63
2023/11/13 01:25:25;;;;;;;24.38;22.02;;;;;;;6.72;100.00;95921.97;5080076;28;20048;-63
2023/11/13 01:27:51;;;;;;;17.30;15.52;;;;;;;6.72;100.00;95931.59;5084972;28;20024;-64
2023/11/13 01:30:16;;;;;;;23.88;21.83;;;;;;;6.72;100.00;95932.44;5086415;28;20039;-63
2023/11/13 01:32:41;;;;;;;23.35;21.13;;;;;;;6.73;100.00;95934.13;5081732;28;20016;-63
2023/11/13 01:35:07;;;;;;;21.23;16.70;;;;;;;6.73;100.00;95943.72;5083842;28;20023;-63
2023/11/13 01:37:32;;;;;;;22.90;20.80;;;;;;;6.76;100.00;95946.16;5085078;28;20056;-63
2023/11/13 01:39:57;;;;;;;25.88;23.38;;;;;;;6.78;100.00;95946.03;5083415;28;20473;-63
2023/11/13 01:42:23;;;;;;;25.92;23.63;;;;;;;6.78;100.00;95946.03;5086403;28;20020;-63
2023/11/13 01:44:50;;;;;;;26.88;24.27;;;;;;;6.79;100.00;95956.38;5084775;28;20496;-64
2023/11/13 01:47:15;;;;;;;19.83;17.92;;;;;;;6.78;100.00;95951.25;5085314;28;20029;-64
2023/11/13 01:49:43;;;;;;;27.10;24.65;;;;;;;6.77;100.00;95949.59;5083486;28;20038;-63
2023/11/13 01:52:09;;;;;;;19.88;17.88;;;;;;;6.82;100.00;95947.47;5097627;28;20079;-64
2023/11/13 01:54:35;;;;;;;26.30;23.90;;;;;;;6.85;100.00;95942.84;5086097;28;20035;-63
2023/11/13 01:57:03;;;;;;;20.88;18.67;;;;;;;6.80;100.00;95950.22;5084966;28;20069;-63
2023/11/13 01:59:29;;;;;;;25.20;22.90;;;;;;;6.75;100.00;95944.47;5095258;28;20103;-63
2023/11/13 02:01:55;;;;;;;23.20;21.10;;;;;;;6.74;100.00;95933.16;5084541;28;20051;-63
2023/11/13 02:04:20;;;;;;;25.02;22.92;;;;;;;6.73;100.00;95928.88;5078995;28;20541;-63
2023/11/13 02:06:46;;;;;;;23.63;21.55;;;;;;;6.77;100.00;95931.25;5074839;28;20287;-63
2023/11/13 02:09:13;;;;;;;25.40;23.15;;;;;;;6.80;100.00;95937.13;5090527;28;20036;-63
2023/11/13 02:11:38;;;;;;;23.75;21.65;;;;;;;6.77;100.00;95926.03;5080397;28;20831;-63
2023/11/13 02:14:05;;;;;;;20.65;18.73;;;;;;;6.76;100.00;95927.84;5092777;28;20027;-63
2023/11/13 02:16:30;;;;;;;20.80;18.85;;;;;;;6.77;100.00;95934.72;5091671;28;20020;-63
2023/11/13 02:18:56;;;;;;;15.35;13.90;;;;;;;6.75;100.00;95936.63;5081328;28;20021;-63
2023/11/13 02:21:22;;;;;;;21.48;19.48;;;;;;;6.74;100.00;95935.78;5095773;28;20031;-63
2023/11/13 02:23:51;;;;;;;21.80;19.77;;;;;;;6.75;100.00;95936.63;5091434;28;20378;-63
2023/11/13 02:26:17;;;;;;;16.48;14.88;;;;;;;6.88;100.00;95936.56;5084896;28;20036;-63
2023/11/13 02:28:44;;;;;;;21.55;19.55;;;;;;;6.86;100.00;95938.47;5087342;28;20028;-63
2023/11/13 02:31:10;;;;;;;20.50;18.60;;;;;;;6.87;100.00;95930.47;5083464;28;20017;-63
2023/11/13 02:33:36;;;;;;;18.33;16.80;;;;;;;6.81;100.00;95941.41;5090574;28;20103;-63
2023/11/13 02:36:02;;;;;;;14.63;13.18;;;;;;;6.76;100.00;95935.69;5077394;28;20031;-64
2023/11/13 02:38:27;;;;;;;17.48;15.80;;;;;;;6.76;100.00;95927.84;5085455;28;20024;-63
2023/11/13 02:40:52;;;;;;;17.10;15.60;;;;;;;6.73;100.00;95934.13;5092820;28;20020;-63
2023/11/13 02:43:18;;;;;;;18.92;17.27;;;;;;;6.74;100.00;95937.53;5081082;28;20029;-63
2023/11/13 02:45:43;;;;;;;18.20;16.50;;;;;;;6.74;100.00;95927.09;5085824;28;20024;-63
2023/11/13 02:48:09;;;;;;;17.63;16.00;;;;;;;6.72;100.00;95919.34;5087297;28;20074;-64
2023/11/13 02:50:35;;;;;;;13.55;12.25;;;;;;;6.70;100.00;95936.97;5086840;28;20028;-63
2023/11/13 02:53:00;;;;;;;14.82;13.38;;;;;;;6.70;100.00;95936.09;5083625;28;20017;-64
2023/11/13 02:55:26;;;;;;;18.73;16.85;;;;;;;6.71;100.00;95909.00;5082944;28;20028;-64
2023/11/13 02:57:52;;;;;;;17.85;16.23;;;;;;;6.73;100.00;95912.31;5084725;28;20020;-64
2023/11/13 03:00:19;;;;;;;17.77;16.08;;;;;;;6.72;100.00;95908.03;5091496;28;20031;-63
2023/11/13 03:02:45;;;;;;;14.32;12.82;;;;;;;6.71;100.00;95909.00;5092555;28;20019;-63
2023/11/13 03:05:10;;;;;;;17.95;16.30;;;;;;;6.71;100.00;95909.00;5085515;28;20083;-63
2023/11/13 03:07:37;;;;;;;17.88;16.30;;;;;;;6.71;100.00;95911.59;5090148;28;20531;-63
2023/11/13 03:10:03;;;;;;;18.63;17.02;;;;;;;6.73;100.00;95910.56;5099871;28;20047;-64
2023/11/13 03:12:28;;;;;;;18.35;16.55;;;;;;;6.75;100.00;95907.84;5102249;28;20035;-63
2023/11/13 03:14:53;;;;;;;18.75;17.02;;;;;;;6.74;100.00;95899.16;5093897;28;20040;-63
2023/11/13 03:17:20;;;;;;;20.85;18.63;;;;;;;6.77;100.00;95910.34;5087012;28;20077;-63
2023/11/13 03:19:45;;;;;;;21.90;19.73;;;;;;;6.77;100.00;95923.41;5092118;28;20134;-63
2023/11/13 03:22:11;;;;;;;19.17;17.45;;;;;;;6.73;100.00;95918.41;5088868;28;20040;-64
2023/11/13 03:24:36;;;;;;;13.73;12.43;;;;;;;6.74;100.00;95921.84;5092912;28;20024;-63
2023/11/13 03:27:02;;;;;;;18.10;16.60;;;;;;;6.74;100.00;95924.47;5093172;28;20012;-63
2023/11/13 03:29:27;;;;;;;18.98;17.13;;;;;;;6.76;100.00;95933.06;5087341;28;20031;-63
2023/11/13 03:31:52;;;;;;;14.70;13.38;;;;;;;6.76;100.00;95929.59;5094736;28;20074;-63
2023/11/13 03:34:18;;;;;;;19.17;17.48;;;;;;;6.82;100.00;95919.53;5096488;28;20032;-64
2023/11/13 03:36:44;;;;;;;19.38;17.67;;;;;;;6.81;100.00;95924.84;5092801;28;20012;-63
2023/11/13 03:39:10;;;;;;;20.08;18.38;;;;;;;6.82;100.00;95932.59;5103238;28;20032;-63
2023/11/13 03:41:36;;;;;;;14.98;13.43;;;;;;;6.81;100.00;95940.56;5097815;28;20028;-63
2023/11/13 03:44:01;;;;;;;28.23;24.30;;;;;;;6.79;100.00;95932.84;5089370;28;20495;-63
2023/11/13 03:46:26;;;;;;;21.17;19.08;;;;;;;6.79;100.00;95937.22;5093683;28;20032;-63
2023/11/13 03:48:52;;;;;;;20.15;18.42;;;;;;;6.83;100.00;95930.81;5090768;28;20024;-63
2023/11/13 03:51:17;;;;;;;20.55;18.48;;;;;;;6.82;100.00;95937.00;5105059;28;20098;-63
2023/11/13 03:53:43;;;;;;;19.98;18.08;;;;;;;6.81;100.00;95940.56;5096049;28;20032;-63
2023/11/13 03:56:08;;;;;;;13.60;12.10;;;;;;;6.76;100.00;95929.59;5095307;28;20527;-64
2023/11/13 03:58:34;;;;;;;18.13;16.52;;;;;;;6.74;100.00;95925.31;5099961;28;20131;-63
2023/11/13 04:00:59;;;;;;;19.00;17.35;;;;;;;6.74;100.00;95921.84;5092257;28;20024;-63
2023/11/13 04:03:25;;;;;;;14.65;13.25;;;;;;;6.71;100.00;95917.69;5084813;28;20069;-63
2023/11/13 04:05:50;;;;;;;20.02;18.15;;;;;;;6.73;100.00;95928.03;5088741;28;20108;-64
2023/11/13 04:08:16;;;;;;;21.38;19.38;;;;;;;6.71;100.00;95936.00;5093739;28;20460;-63
2023/11/13 04:10:41;;;;;;;21.17;19.27;;;;;;;6.71;100.00;95933.38;5083977;28;20039;-63
2023/11/13 04:13:06;;;;;;;17.27;15.57;;;;;;;6.73;100.00;95941.13;5089837;28;20488;-64
2023/11/13 04:15:32;;;;;;;24.08;21.77;;;;;;;6.74;100.00;95942.78;5088334;28;20021;-63
2023/11/13 04:17:57;;;;;;;24.75;22.58;;;;;;;6.75;100.00;95952.34;5090350;28;20501;-63
2023/11/13 04:20:23;;;;;;;27.90;25.40;;;;;;;6.77;100.00;95947.81;5094717;28;20051;-63
2023/11/13 04:22:50;;;;;;;25.52;23.42;;;;;;;6.77;100.00;95937.34;5089536;28;20028;-63
2023/11/13 04:25:15;;;;;;;22.23;20.10;;;;;;;6.77;100.00;95937.34;5091394;28;20028;-63
2023/11/13 04:27:41;;;;;;;22.70;20.70;;;;;;;6.81;100.00;95951.88;5089352;28;20038;-63
2023/11/13 04:30:07;;;;;;;15.15;13.75;;;;;;;6.82;100.00;95947.47;5088546;28;20107;-63
2023/11/13 04:32:32;;;;;;;18.27;16.77;;;;;;;6.81;100.00;95946.63;5096355;28;20099;-63
2023/11/13 04:34:58;;;;;;;19.35;17.45;;;;;;;6.82;100.00;95942.22;5084145;28;20051;-63
2023/11/13 04:37:24;;;;;;;19.85;18.02;;;;;;;6.84;100.00;95956.88;5088218;28;20563;-63
2023/11/13 04:39:49;;;;;;;13.98;12.60;;;;;;;6.84;100.00;95963.88;5096063;28;20027;-63
2023/11/13 04:42:14;;;;;;;19.40;17.50;;;;;;;6.85;100.00;95966.41;5091696;28;20051;-63
2023/11/13 04:44:39;;;;;;;18.13;16.50;;;;;;;6.85;100.00;95966.41;5089747;28;20023;-64
2023/11/13 04:47:06;;;;;;;18.80;17.08;;;;;;;6.88;100.00;95960.94;5085417;28;20025;-63
2023/11/13 04:49:31;;;;;;;21.00;19.00;;;;;;;6.88;100.00;95963.56;5080294;28;20028;-63
2023/11/13 04:51:57;;;;;;;20.15;18.45;;;;;;;6.86;100.00;95956.78;5082328;28;20060;-63
2023/11/13 04:54:22;;;;;;;14.18;12.98;;;;;;;6.84;100.00;95958.66;5080203;28;20031;-63
2023/11/13 04:56:47;;;;;;;19.58;17.88;;;;;;;6.85;100.00;95962.94;5089437;28;20020;-64
2023/11/13 04:59:13;;;;;;;16.67;15.27;;;;;;;6.87;100.00;95961.88;5083943;28;20055;-63
2023/11/13 05:01:39;;;;;;;17.27;15.57;;;;;;;6.84;100.00;95962.13;5091553;28;20503;-63
2023/11/13 05:04:08;;;;;;;15.00;13.57;;;;;;;6.74;100.00;95966.31;5091061;28;20388;-63
2023/11/13 05:06:35;;;;;;;20.85;18.88;;;;;;;6.75;100.00;95973.25;5089241;28;20028;-63
2023/11/13 05:09:03;;;;;;;18.63;17.13;;;;;;;6.80;100.00;95981.59;5087336;28;20078;-63
2023/11/13 05:11:28;;;;;;;12.95;11.65;;;;;;;6.77;100.00;95992.31;5086767;28;20131;-63
2023/11/13 05:13:54;;;;;;;17.88;16.23;;;;;;;6.79;100.00;95993.03;5092073;28;20050;-63
2023/11/13 05:16:24;;;;;;;15.50;14.20;;;;;;;6.82;100.00;95989.34;5086917;28;20103;-63
2023/11/13 05:18:54;;;;;;;10.82;9.90;;;;;;;6.79;100.00;96016.56;5082631;28;20025;-63
2023/11/13 05:21:20;;;;;;;13.68;12.52;;;;;;;6.79;100.00;96016.56;5090207;28;20020;-63
2023/11/13 05:23:47;;;;;;;33.17;27.33;;;;;;;6.81;100.00;96016.44;5089337;28;20012;-63
2023/11/13 05:26:13;;;;;;;14.82;13.63;;;;;;;6.94;100.00;96029.47;5090267;28;20028;-63
2023/11/13 05:28:38;;;;;;;13.13;12.00;;;;;;;6.95;100.00;96037.25;5088425;28;20073;-63
2023/11/13 05:31:04;;;;;;;17.33;14.32;;;;;;;6.86;100.00;96043.97;5084337;28;20025;-63
2023/11/13 05:33:29;;;;;;;15.82;14.40;;;;;;;6.84;100.00;96045.88;5091776;28;20032;-63
2023/11/13 05:35:55;;;;;;;13.07;11.98;;;;;;;6.81;100.00;96035.63;5084049;28;20047;-63
2023/11/13 05:38:21;;;;;;;9.63;8.73;;;;;;;6.85;100.00;96046.69;5077130;28;20089;-63
2023/11/13 05:40:46;;;;;;;13.25;12.15;;;;;;;6.81;100.00;96040.84;5089542;28;20392;-63
2023/11/13 05:43:12;;;;;;;21.00;18.90;;;;;;;6.81;100.00;96033.00;5092240;28;20032;-63
2023/11/13 05:45:37;;;;;;;34.08;23.90;;;;;;;6.83;100.00;96031.09;5089984;28;20016;-63
2023/11/13 05:48:04;;;;;;;15.93;14.50;;;;;;;6.85;100.00;96031.84;5095261;28;20058;-63
2023/11/13 05:50:29;;;;;;;16.25;14.95;;;;;;;6.84;100.00;96031.94;5092584;28;20024;-63
2023/11/13 05:52:55;;;;;;;54.50;43.00;;;;;;;6.85;100.00;96039.69;5087439;28;20107;-63
2023/11/13 05:55:24;;;;;;;50.42;41.75;;;;;;;6.87;100.00;96035.16;5085437;28;20024;-63
2023/11/13 05:57:50;;;;;;;17.17;15.40;;;;;;;6.86;100.00;96025.66;5095168;28;20024;-63
2023/11/13 06:00:18;;;;;;;18.10;16.40;;;;;;;6.86;100.00;96030.88;5087723;28;20030;-63
2023/11/13 06:02:46;;;;;;;19.02;17.15;;;;;;;6.86;100.00;96032.69;5081948;28;20022;-63
2023/11/13 06:05:12;;;;;;;16.92;15.63;;;;;;;6.86;100.00;96033.50;5091021;28;20025;-63
2023/11/13 06:07:38;;;;;;;16.00;14.60;;;;;;;6.87;100.00;96032.56;5086290;28;20111;-63
2023/11/13 06:10:10;;;;;;;15.57;14.27;;;;;;;6.87;100.00;96037.78;5091339;28;20070;-63
2023/11/13 06:12:38;;;;;;;34.17;30.80;;;;;;;6.90;100.00;96034.13;5087440;28;20052;-64
2023/11/13 06:15:13;;;;;;;32.97;29.42;;;;;;;6.87;100.00;96043.03;5091386;28;20613;-64
2023/11/13 06:17:40;;;;;;;21.80;19.42;;;;;;;6.87;100.00;96040.41;5079771;28;20023;-63
2023/11/13 06:20:06;;;;;;;16.42;14.93;;;;;;;6.88;100.00;96026.38;5079529;28;20033;-63
2023/11/13 06:22:31;;;;;;;13.82;12.63;;;;;;;6.89;100.00;96032.47;5088115;28;20035;-63
2023/11/13 06:24:57;;;;;;;15.25;14.00;;;;;;;6.89;100.00;96042.94;5082095;28;20074;-63
2023/11/13 06:27:23;;;;;;;16.70;15.30;;;;;;;6.89;100.00;96069.09;5082184;28;20021;-63
2023/11/13 06:29:48;;;;;;;45.40;39.60;;;;;;;6.89;100.00;96095.28;5085631;28;20675;-63
2023/11/13 06:32:13;;;;;;;23.08;20.90;;;;;;;6.88;100.00;96096.22;5079853;28;20381;-64
2023/11/13 06:34:39;;;;;;;29.38;26.27;;;;;;;6.85;100.00;96091.19;5088196;28;20020;-64
2023/11/13 06:37:04;;;;;;;24.10;21.73;;;;;;;6.84;100.00;96100.81;5088430;28;20035;-63
2023/11/13 06:39:30;;;;;;;20.27;18.35;;;;;;;6.82;100.00;96107.94;5082767;28;20778;-64
2023/11/13 06:41:55;;;;;;;14.70;13.40;;;;;;;6.90;100.00;96111.81;5085682;28;20193;-64
2023/11/13 06:44:20;;;;;;;18.70;16.95;;;;;;;6.89;100.00;96121.44;5088241;28;20087;-63
2023/11/13 06:46:46;;;;;;;18.73;17.13;;;;;;;6.93;100.00;96136.00;5085238;28;20433;-63
2023/11/13 06:49:13;;;;;;;21.20;19.40;;;;;;;6.96;100.00;96132.28;5081000;28;20020;-64
2023/11/13 06:51:38;;;;;;;23.02;20.98;;;;;;;6.94;100.00;96129.81;5089613;28;20024;-63
2023/11/13 06:54:04;;;;;;;43.10;38.72;;;;;;;6.93;100.00;96128.13;5063089;28;20020;-65
2023/11/13 06:56:32;;;;;;;24.48;22.30;;;;;;;6.96;100.00;96132.28;5094166;28;20246;-63
2023/11/13 06:58:58;;;;;;;16.70;15.00;;;;;;;7.02;100.00;96127.47;5087339;28;20016;-63
2023/11/13 07:01:25;;;;;;;20.65;18.75;;;;;;;7.05;100.00;96115.94;5083852;28;20111;-64
2023/11/13 07:03:51;;;;;;;19.30;17.23;;;;;;;7.07;100.00;96108.81;5089043;28;20043;-65
2023/11/13 07:06:17;;;;;;;26.88;24.17;;;;;;;7.11;100.00;96106.81;5088803;28;20468;-63
2023/11/13 07:08:42;;;;;;;29.13;26.08;;;;;;;7.15;100.00;96106.47;5091120;28;20058;-64
2023/11/13 07:11:10;;;;;;;33.58;30.00;;;;;;;7.10;100.00;96113.84;5087287;28;20067;-63
2023/11/13 07:13:37;;;;;;;38.65;34.17;;;;;;;7.05;100.00;96136.91;5089847;28;20026;-63
2023/11/13 07:16:03;;;;;;;40.75;36.65;;;;;;;7.01;100.00;96145.91;5094518;28;20508;-64
2023/11/13 07:18:28;;;;;;;43.88;37.22;;;;;;;7.03;100.00;96154.50;5087205;28;20016;-63
2023/11/13 07:20:54;;;;;;;32.67;25.23;;;;;;;7.09;100.00;96161.91;5080582;28;20771;-63
2023/11/13 07:23:19;;;;;;;25.50;22.80;;;;;;;7.10;100.00;96157.53;5084349;28;20028;-63
2023/11/13 07:25:46;;;;;;;30.20;27.20;;;;;;;7.17;100.00;96141.25;5084108;28;20060;-63
2023/11/13 07:28:15;;;;;;;35.65;32.25;;;;;;;7.17;100.00;96146.47;5089312;28;20547;-63
2023/11/13 07:30:40;;;;;;;32.35;29.15;;;;;;;7.27;100.00;96145.84;5093864;28;20111;-63
2023/11/13 07:33:06;;;;;;;39.50;35.53;;;;;;;7.24;100.00;96131.16;5082635;28;20098;-63
2023/11/13 07:35:32;;;;;;;128.48;36.47;;;;;;;7.21;100.00;96115.69;5090299;28;20048;-63
2023/11/13 07:37:57;;;;;;;49.85;35.00;;;;;;;7.26;100.00;96103.09;5093682;28;20069;-63
2023/11/13 07:40:25;;;;;;;55.15;36.53;;;;;;;7.21;100.00;96096.53;5090496;28;20040;-63
2023/11/13 07:42:51;;;;;;;85.07;46.72;;;;;;;7.20;100.00;96089.63;5090917;28;20659;-63
2023/11/13 07:45:16;;;;;;;47.50;35.20;;;;;;;7.19;100.00;96086.16;5092100;28;20090;-63
2023/11/13 07:47:42;;;;;;;33.35;29.52;;;;;;;7.23;100.00;96097.25;5089144;28;20042;-63
2023/11/13 07:50:11;;;;;;;32.50;29.00;;;;;;;7.28;100.00;96088.09;5081221;28;20024;-63
2023/11/13 07:52:44;;;;;;;36.08;32.28;;;;;;;7.32;100.00;96080.84;5083231;28;20051;-64
2023/11/13 07:55:11;;;;;;;41.97;36.10;;;;;;;7.33;100.00;96085.16;5094521;28;20032;-64
2023/11/13 07:57:38;;;;;;;38.63;33.65;;;;;;;7.33;100.00;96110.53;5094226;28;20024;-64
2023/11/13 08:00:05;;;;;;;28.90;25.75;;;;;;;7.36;100.00;96118.16;5088435;28;20055;-63
2023/11/13 08:02:30;;;;;;;36.58;30.98;;;;;;;7.39;100.00;96131.84;5097912;28;20024;-63
2023/11/13 08:04:56;;;;;;;31.73;28.27;;;;;;;7.46;100.00;96121.75;5096519;28;20028;-64
2023/11/13 08:07:21;;;;;;;35.13;31.23;;;;;;;7.53;100.00;96115.13;5087617;28;20174;-63
2023/11/13 08:09:47;;;;;;;35.83;32.25;;;;;;;7.65;100.00;96105.53;5084606;28;20024;-63
2023/11/13 08:12:13;;;;;;;31.10;27.88;;;;;;;7.82;100.00;96108.66;5082880;28;20040;-64
2023/11/13 08:14:38;;;;;;;31.17;28.13;;;;;;;7.79;100.00;96106.28;5092101;28;20030;-63
2023/11/13 08:17:04;;;;;;;31.33;28.30;;;;;;;7.74;100.00;96093.53;5089959;28;20488;-63
2023/11/13 08:19:29;;;;;;;28.27;25.48;;;;;;;7.73;100.00;96087.44;5087531;28;20231;-64
2023/11/13 08:21:55;;;;;;;31.35;28.35;;;;;;;7.78;100.00;96076.63;5089351;28;20024;-64
2023/11/13 08:24:21;;;;;;;30.95;28.05;;;;;;;7.67;100.00;96074.81;5081541;28;20036;-63
2023/11/13 08:26:46;;;;;;;24.80;22.67;;;;;;;7.68;100.00;96073.84;5088443;28;20030;-63
2023/11/13 08:29:15;;;;;;;24.63;21.85;;;;;;;7.81;100.00;96083.41;5086020;28;20028;-63
2023/11/13 08:31:41;;;;;;;23.10;21.08;;;;;;;7.78;100.00;96079.25;5087348;28;20035;-64
2023/11/13 08:34:07;;;;;;;24.33;21.95;;;;;;;7.80;100.00;96073.88;5079710;28;20465;-63
2023/11/13 08:36:32;;;;;;;24.35;21.98;;;;;;;7.76;100.00;96060.19;5085778;28;20106;-64
2023/11/13 08:38:59;;;;;;;25.92;23.45;;;;;;;7.81;100.00;96037.06;5079186;28;20060;-63
2023/11/13 08:41:28;;;;;;;24.15;21.80;;;;;;;7.87;100.00;96027.91;5080337;28;20025;-63
2023/11/13 08:43:54;;;;;;;26.67;24.35;;;;;;;7.98;100.00;96019.22;5088135;28;20040;-63
2023/11/13 08:46:21;;;;;;;24.85;22.45;;;;;;;8.01;100.00;96016.38;5086057;28;20077;-63
2023/11/13 08:48:47;;;;;;;29.92;26.92;;;;;;;8.00;100.00;96036.50;5083931;28;20024;-63
2023/11/13 08:51:12;;;;;;;51.67;41.28;;;;;;;7.98;100.00;96035.78;5084454;28;20032;-63
2023/11/13 08:53:42;;;;;;;44.03;35.63;;;;;;;7.95;100.00;96025.53;5085400;28;20029;-63
2023/11/13 08:56:14;;;;;;;25.23;22.70;;;;;;;8.05;100.00;96015.16;5080782;28;20024;-63
2023/11/13 08:58:41;;;;;;;23.83;21.58;;;;;;;8.20;100.00;96012.31;5090972;28;20038;-63
2023/11/13 09:01:07;;;;;;;25.98;23.55;;;;;;;8.21;100.00;96019.25;5080734;28;20875;-64
2023/11/13 09:03:33;;;;;;;26.83;24.27;;;;;;;8.28;100.00;96013.38;5084188;28;20032;-64
2023/11/13 09:05:59;;;;;;;27.13;24.52;;;;;;;8.31;100.00;96000.03;5085535;28;20118;-64
2023/11/13 09:08:24;;;;;;;32.17;28.10;;;;;;;8.25;100.00;96003.13;5084209;28;20158;-64
2023/11/13 09:10:50;;;;;;;25.10;22.67;;;;;;;8.28;100.00;96000.25;5084879;28;20138;-63
2023/11/13 09:13:15;;;;;;;63.10;42.42;;;;;;;8.33;100.00;95992.03;5079568;28;20032;-64
2023/11/13 09:15:41;;;;;;;59.35;40.53;;;;;;;8.45;100.00;95984.97;5086443;28;20110;-64
2023/11/13 09:18:08;;;;;;;32.97;26.42;;;;;;;8.52;100.00;95991.47;5079569;28;20884;-64
2023/11/13 09:20:34;;;;;;;18.63;16.73;;;;;;;8.70;100.00;96002.28;5079275;28;20024;-64
2023/11/13 09:23:02;;;;;;;14.15;12.88;;;;;;;8.86;100.00;96001.06;5082266;28;21470;-64
2023/11/13 09:25:28;;;;;;;15.18;13.88;;;;;;;8.91;100.00;96019.03;5079340;28;20024;-64
2023/11/13 09:27:56;;;;;;;17.40;15.82;;;;;;;9.04;100.00;96019.72;5079356;28;20029;-64
2023/11/13 09:30:22;;;;;;;16.83;15.43;;;;;;;9.18;100.00;96031.75;5080991;28;20040;-64
2023/11/13 09:32:50;;;;;;;14.10;12.80;;;;;;;9.28;100.00;96037.09;5079362;28;20031;-64
2023/11/13 09:35:23;;;;;;;10.50;9.80;;;;;;;9.35;100.00;96040.88;5078534;28;20036;-64
2023/11/13 09:37:51;;;;;;;9.93;8.93;;;;;;;9.37;100.00;96038.94;5084311;28;20059;-64
2023/11/13 09:40:19;;;;;;;9.98;9.18;;;;;;;9.43;100.00;96040.25;5080465;28;20063;-64
2023/11/13 09:42:54;;;;;;;10.52;9.57;;;;;;;9.52;100.00;96046.53;5078186;28;20035;-64
2023/11/13 09:45:20;;;;;;;11.48;10.55;;;;;;;9.63;100.00;96062.28;5092414;28;20404;-64
2023/11/13 09:47:47;;;;;;;8.55;7.85;;;;;;;9.77;100.00;96057.63;5082828;28;20096;-64
2023/11/13 09:50:17;;;;;;;8.20;7.57;;;;;;;9.84;100.00;96049.13;5081330;28;20089;-64
2023/11/13 09:52:47;;;;;;;9.48;8.73;;;;;;;9.88;100.00;96049.69;5079335;28;20054;-64
2023/11/13 09:55:18;;;;;;;10.98;10.07;;;;;;;9.93;100.00;96047.50;5079189;28;20032;-64
2023/11/13 09:57:45;;;;;;;11.73;10.65;;;;;;;10.04;100.00;96062.38;5085582;28;20586;-64
2023/11/13 10:00:16;;;;;;;12.13;11.13;;;;;;;10.01;100.00;96067.91;5081362;28;20523;-64
2023/11/13 10:02:44;;;;;;;15.55;14.13;;;;;;;10.04;100.00;96084.25;5085388;28;20041;-64
2023/11/13 10:05:12;;;;;;;14.32;13.10;;;;;;;10.11;100.00;96146.91;5082462;28;20024;-64
2023/11/13 10:07:42;;;;;;;14.32;13.00;;;;;;;10.14;100.00;96150.09;5082939;28;20027;-64
2023/11/13 10:10:09;;;;;;;12.05;11.02;;;;;;;10.17;100.00;96149.84;5079092;28;20044;-64
2023/11/13 10:12:35;;;;;;;8.60;7.88;;;;;;;10.41;100.00;96153.19;5086372;28;20028;-64
2023/11/13 10:15:08;;;;;;;7.20;6.63;;;;;;;10.22;100.00;96153.91;5076619;28;20031;-64
2023/11/13 10:17:48;;;;;;;6.30;5.70;;;;;;;10.26;100.00;96145.59;5084694;28;20389;-64
2023/11/13 10:20:19;;;;;;;6.78;6.25;;;;;;;10.23;100.00;96160.81;5084612;28;20024;-64
2023/11/13 10:22:55;;;;;;;6.28;5.25;;;;;;;10.33;100.00;96164.34;5084015;28;20439;-64
2023/11/13 10:25:21;;;;;;;6.90;6.32;;;;;;;10.35;100.00;96172.94;5080563;28;20059;-65
2023/11/13 10:27:59;;;;;;;6.30;5.78;;;;;;;10.31;100.00;96182.91;5077674;28;20033;-64
2023/11/13 10:30:27;;;;;;;8.07;6.72;;;;;;;10.29;100.00;96184.00;5087935;28;20039;-64
2023/11/13 10:32:53;;;;;;;7.35;6.22;;;;;;;10.30;100.00;96191.78;5084921;28;20403;-64
2023/11/13 10:35:35;;;;;;;8.02;7.43;;;;;;;10.32;100.00;96196.88;5081289;28;20117;-64
2023/11/13 10:38:03;;;;;;;6.90;6.25;;;;;;;10.47;100.00;96205.31;5076800;28;20416;-64
2023/11/13 10:40:30;;;;;;;7.35;6.72;;;;;;;10.35;100.00;96208.97;5081041;28;20131;-64
2023/11/13 10:42:56;;;;;;;8.38;7.78;;;;;;;10.34;100.00;96215.19;5080902;28;20028;-64
2023/11/13 10:45:21;;;;;;;9.18;8.27;;;;;;;10.35;100.00;96222.94;5080920;28;20081;-64
2023/11/13 10:47:49;;;;;;;6.28;5.78;;;;;;;10.42;100.00;96231.19;5080643;28;20019;-64
2023/11/13 10:50:19;;;;;;;6.13;5.57;;;;;;;10.40;100.00;96227.84;5084689;28;20033;-64
2023/11/13 10:52:51;;;;;;;7.15;6.55;;;;;;;10.24;100.00;96237.00;5080253;28;20047;-64
2023/11/13 10:55:19;;;;;;;7.70;7.10;;;;;;;10.25;100.00;96236.03;5083279;28;20028;-64
2023/11/13 10:57:45;;;;;;;7.55;6.95;;;;;;;10.23;100.00;96222.16;5077446;28;20025;-64
2023/11/13 11:00:14;;;;;;;10.32;8.18;;;;;;;10.31;100.00;96214.50;5079798;28;20028;-64
2023/11/13 11:02:45;;;;;;;10.23;9.13;;;;;;;10.25;100.00;96233.41;5085824;28;20438;-64
2023/11/13 11:05:24;;;;;;;10.82;9.73;;;;;;;10.29;100.00;96241.88;5081926;28;20031;-64
2023/11/13 11:07:54;;;;;;;9.95;9.07;;;;;;;10.05;100.00;96235.06;5077608;28;20021;-64
2023/11/13 11:10:25;;;;;;;22.85;20.55;;;;;;;9.91;100.00;96244.06;5083290;28;20122;-64
2023/11/13 11:13:13;;;;;;;11.20;10.10;;;;;;;9.80;100.00;96249.34;5080847;28;20032;-64